Latest Weather Observations for Mortlake

IDV60801

Issued at 9:02 pm EDT Sunday 26 February 2017 (issued every 30 minutes, with the page automatically refreshed every 10 minutes)

About weather observations | Map of weather stations | Latest weather observations for VIC | Other Formats
Station Details ID: 090176 Name: MORTLAKE RACECOURSE Lat: -38.07 Lon: 142.77 Height: 130.0 m
Data from the previous 72 hours. | See also: Recent months at Mortlake
Date/Time
EDT
Temp
°C
App
Temp
°C
Dew
Point
°C
Rel
Hum
%
Delta-T
°C
Wind Press
QNH
hPa
Press
MSL
hPa
Rain since
9am
mm
Dir  Spd
km/h
Gust
km/h
Spd
kts
Gust
kts
26/09:00pm 22.2 21.1 13.0 56 5.3 ESE 11 17 6 9 - 1019.3 0.0
26/08:30pm 23.2 22.5 13.1 53 5.8 E 9 19 5 10 1019.3 1019.0 0.0
26/08:00pm 23.3 22.7 14.6 58 5.2 SSE 11 17 6 9 1018.9 1018.6 0.0
26/07:30pm 24.7 23.3 14.5 53 6.1 S 15 20 8 11 1018.7 1018.4 0.0
26/07:00pm 26.3 23.6 14.7 48 7.0 S 22 30 12 16 1018.4 1018.1 0.0
26/06:30pm 28.4 26.8 13.9 41 8.7 S 15 22 8 12 1017.9 1017.6 0.0
26/06:00pm 30.7 29.6 8.4 25 12.4 E 4 7 2 4 1017.7 1017.4 0.0
26/05:30pm 30.9 29.1 8.0 24 12.7 WNW 7 15 4 8 1017.7 1017.4 0.0
26/05:00pm 30.9 28.9 8.6 25 12.4 N 9 17 5 9 1017.7 1017.4 0.0
26/04:30pm 30.4 28.2 9.3 27 11.9 NNE 11 17 6 9 1017.9 1017.6 0.0
26/04:00pm 30.3 28.1 10.8 30 11.2 E 13 24 7 13 1018.1 1017.8 0.0
26/03:30pm 29.8 27.6 10.9 31 10.9 N 13 20 7 11 1018.3 1018.0 0.0
26/03:00pm 28.8 28.1 11.4 34 10.0 S 6 9 3 5 1018.7 1018.4 0.0
26/02:30pm 28.0 26.8 11.5 35 9.5 NNE 9 15 5 8 1019.2 1018.9 0.0
26/02:00pm 28.3 27.4 12.6 38 9.2 NNE 9 17 5 9 1019.6 1019.3 0.0
26/01:30pm 27.6 27.5 13.9 43 8.2 NNE 7 13 4 7 1019.8 1019.5 0.0
26/01:00pm 26.8 26.7 13.9 45 7.7 NNE 7 15 4 8 1020.2 1019.9 0.0
26/12:30pm 25.9 25.5 14.1 48 7.0 NNE 9 17 5 9 1020.5 1020.2 0.0
26/12:00pm 23.9 22.6 12.5 49 6.5 NE 11 20 6 11 1020.8 1020.5 0.0
26/11:30am 23.7 22.4 13.6 53 5.9 NE 13 24 7 13 1021.0 1020.7 0.0
26/11:00am 22.2 20.4 13.3 57 5.1 E 15 20 8 11 1021.2 1020.9 0.0
26/10:30am 20.7 18.8 12.9 61 4.5 E 15 24 8 13 1021.5 1021.2 0.0
26/10:00am 20.2 18.8 13.4 65 3.9 E 13 20 7 11 1021.7 1021.4 0.0
26/09:30am 18.3 15.6 13.0 71 3.0 ESE 19 26 10 14 1021.6 1021.3 0.0
26/09:00am 16.7 16.0 16.5 99 0.1 E 15 22 8 12 1021.7 1021.4 0.0
26/08:30am 14.5 14.8 14.5 100 0.0 ESE 6 7 3 4 1021.7 1021.4 0.0
26/08:00am 13.1 13.7 13.1 100 0.0 SSE 2 4 1 2 1021.7 1021.4 0.0
26/07:30am 12.3 13.0 12.3 100 0.0 CALM 0 0 0 0 1021.7 1021.4 0.0
26/07:00am 11.8 12.0 11.8 100 0.0 S 2 2 1 1 1021.6 1021.3 0.0
26/06:30am 11.4 11.1 11.4 100 0.0 S 4 6 2 3 1021.3 1021.0 0.0
26/06:00am 11.0 11.3 11.0 100 0.0 CALM 0 4 0 2 1020.9 1020.6 0.0
26/05:30am 10.4 10.6 10.4 100 0.0 CALM 0 2 0 1 1020.7 1020.4 0.0
26/05:00am 8.9 8.7 8.9 100 0.0 CALM 0 2 0 1 1020.8 1020.5 0.0
26/04:30am 8.1 7.7 8.1 100 0.0 CALM 0 0 0 0 1020.8 1020.5 0.0
26/04:00am 7.8 7.3 7.8 100 0.0 CALM 0 0 0 0 1020.9 1020.6 0.0
26/03:30am 7.2 6.6 7.2 100 0.0 CALM 0 0 0 0 1021.3 1021.0 0.0
26/03:00am 7.7 7.2 7.7 100 0.0 CALM 0 0 0 0 1021.6 1021.3 0.0
26/02:30am 7.7 7.2 7.7 100 0.0 CALM 0 0 0 0 1022.1 1021.7 0.0
26/02:00am 8.1 7.7 8.1 100 0.0 CALM 0 0 0 0 1022.4 1022.0 0.0
26/01:30am 8.6 7.5 8.6 100 0.0 S 4 6 2 3 1022.7 1022.3 0.0
26/01:00am 8.5 7.0 8.5 100 0.0 S 6 7 3 4 1023.0 1022.6 0.0
26/12:30am 9.5 8.3 9.5 100 0.0 S 6 6 3 3 1023.2 1022.8 0.0
26/12:00am 8.6 7.5 8.3 98 0.1 S 4 6 2 3 1023.5 1023.1 0.0
 
Date/Time
EDT
Temp
°C
App
Temp
°C
Dew
Point
°C
Rel
Hum
%
Delta-T
°C
Wind Press
QNH
hPa
Press
MSL
hPa
Rain since
9am
mm
Dir  Spd
km/h
Gust
km/h
Spd
kts
Gust
kts
25/11:30pm 10.2 8.9 10.1 99 0.1 S 7 9 4 5 1023.7 1023.3 0.0
25/11:00pm 10.5 9.2 10.0 97 0.3 S 7 9 4 5 1023.8 1023.4 0.0
25/10:30pm 11.2 9.7 10.4 95 0.4 SSW 9 11 5 6 1023.8 1023.4 0.0
25/10:00pm 11.9 10.5 11.0 94 0.5 SSW 9 11 5 6 1023.7 1023.3 0.0
25/09:30pm 12.3 10.8 10.7 90 0.8 S 9 11 5 6 1023.7 1023.3 0.0
25/09:00pm 13.1 11.0 11.2 88 1.0 SSW 13 15 7 8 1023.6 1023.2 0.0
25/08:30pm 13.6 11.1 11.1 85 1.3 S 15 20 8 11 1023.7 1023.3 0.0
25/08:00pm 14.0 10.9 10.4 79 1.9 S 17 24 9 13 1023.6 1023.2 0.0
25/07:30pm 14.9 11.2 10.1 73 2.5 S 20 30 11 16 1023.4 1023.0 0.0
25/07:00pm 15.5 10.5 9.4 67 3.2 SSE 26 35 14 19 1023.4 1023.0 0.0
25/06:30pm 16.4 11.1 8.4 59 4.1 S 26 35 14 19 1023.4 1023.0 0.0
25/06:00pm 16.3 11.3 8.0 58 4.2 SSE 24 33 13 18 1023.5 1023.1 0.0
25/05:30pm 17.2 11.9 8.4 56 4.5 SSE 26 39 14 21 1023.6 1023.2 0.0
25/05:00pm 17.3 11.4 7.6 53 4.9 S 28 39 15 21 1023.9 1023.5 0.0
25/04:30pm 18.6 12.4 7.7 49 5.6 S 30 41 16 22 1023.9 1023.5 0.0
25/04:00pm 18.4 12.4 6.9 47 5.8 SSE 28 44 15 24 1023.9 1023.5 0.0
25/03:30pm 18.4 12.8 7.2 48 5.7 S 26 39 14 21 1024.0 1023.6 0.0
25/03:00pm 18.8 13.5 6.6 45 6.1 SSE 24 35 13 19 1024.2 1023.9 0.0
25/02:30pm 18.7 13.6 6.2 44 6.2 S 22 37 12 20 1024.5 1024.2 0.0
25/02:00pm 18.9 14.3 6.4 44 6.2 SSE 20 32 11 17 1024.5 1024.2 0.0
25/01:30pm 19.0 14.5 6.2 43 6.4 S 19 33 10 18 1024.8 1024.5 0.0
25/01:00pm 18.9 14.5 6.7 45 6.1 SE 19 33 10 18 1024.9 1024.6 0.0
25/12:30pm 18.5 13.4 6.0 44 6.2 SSE 22 35 12 19 1025.4 1025.1 0.0
25/12:00pm 17.0 11.5 5.9 48 5.4 SSE 24 37 13 20 1025.8 1025.5 0.0
25/11:30am 16.0 10.8 5.6 50 5.0 SSE 22 33 12 18 1026.0 1025.7 0.0
25/11:00am 17.4 12.1 6.9 50 5.2 SSE 24 35 13 19 1025.8 1025.5 0.0
25/10:30am 15.9 10.1 6.1 52 4.8 SSE 26 37 14 20 1026.4 1026.1 0.0
25/10:00am 14.1 9.8 7.2 63 3.4 SSE 19 32 10 17 1026.6 1026.3 0.0
25/09:30am 13.9 10.0 8.5 70 2.7 SSE 19 24 10 13 1026.6 1026.3 0.0
25/09:00am 13.4 10.5 9.6 78 1.9 SE 15 20 8 11 1026.4 1026.1 0.0
25/08:30am 11.7 10.5 11.7 100 0.0 SSE 9 13 5 7 1026.2 1025.9 0.0
25/08:00am 10.2 9.0 10.2 100 0.0 SSE 7 9 4 5 1026.1 1025.8 0.0
25/07:30am 8.6 7.5 8.6 100 0.0 S 4 6 2 3 1025.9 1025.6 0.0
25/07:00am 7.9 7.4 7.9 100 0.0 CALM 0 0 0 0 1025.7 1025.4 0.0
25/06:30am 7.0 6.3 7.0 100 0.0 CALM 0 0 0 0 1025.7 1025.4 0.0
25/06:00am 5.7 4.3 5.7 100 0.0 S 2 4 1 2 1025.6 1025.3 0.0
25/05:30am 7.3 5.9 7.3 100 0.0 S 4 6 2 3 1025.4 1025.1 0.0
25/05:00am 7.6 6.3 7.6 100 0.0 S 4 6 2 3 1025.1 1024.8 0.0
25/04:30am 6.0 4.3 5.7 98 0.1 S 4 4 2 2 1025.3 1025.0 0.0
25/04:00am 7.4 6.0 7.3 99 0.0 S 4 4 2 2 1025.5 1025.2 0.0
25/03:30am 8.2 6.6 8.1 99 0.0 S 6 6 3 3 1025.6 1025.3 0.0
25/03:00am 7.9 6.2 7.6 98 0.1 S 6 7 3 4 1025.7 1025.4 0.0
25/02:30am 8.9 7.3 8.6 98 0.1 S 7 7 4 4 1025.9 1025.6 0.0
25/02:00am 8.8 7.2 8.0 95 0.4 S 6 6 3 3 1026.2 1025.9 0.0
25/01:30am 9.5 7.9 8.7 95 0.4 S 7 9 4 5 1026.3 1026.0 0.0
25/01:00am 9.6 7.1 8.4 92 0.6 S 11 11 6 6 1026.5 1026.2 0.0
25/12:30am 10.6 8.6 8.5 87 1.0 S 9 11 5 6 1026.5 1026.2 0.0
25/12:00am 12.9 11.7 10.3 84 1.3 SE 7 9 4 5 1026.5 1026.2 0.0
 
Date/Time
EDT
Temp
°C
App
Temp
°C
Dew
Point
°C
Rel
Hum
%
Delta-T
°C
Wind Press
QNH
hPa
Press
MSL
hPa
Rain since
9am
mm
Dir  Spd
km/h
Gust
km/h
Spd
kts
Gust
kts
24/11:30pm 13.5 12.0 10.5 82 1.6 SSE 9 11 5 6 1026.5 1026.2 0.0
24/11:00pm 13.3 11.6 11.2 87 1.1 SSE 11 17 6 9 1026.6 1026.3 0.0
24/10:30pm 10.7 9.2 9.0 89 0.8 SSE 7 9 4 5 1026.7 1026.4 0.0
24/10:00pm 10.7 9.0 8.5 86 1.1 S 7 9 4 5 1026.7 1026.4 0.0
24/09:30pm 11.6 9.2 8.8 83 1.4 S 11 13 6 7 1026.8 1026.5 0.0
24/09:00pm 12.5 10.4 8.4 76 2.0 S 9 13 5 7 1026.6 1026.3 0.0
24/08:30pm 14.0 10.8 8.4 69 2.8 S 15 19 8 10 1026.3 1026.0 0.0
24/08:00pm 15.3 11.6 8.1 62 3.6 S 17 22 9 12 1026.0 1025.7 0.0
24/07:30pm 16.4 13.4 9.1 62 3.8 SSW 15 19 8 10 1025.9 1025.6 0.0
24/07:00pm 17.0 13.8 9.9 63 3.7 S 17 22 9 12 1025.8 1025.5 0.0
24/06:30pm 17.2 13.8 9.1 59 4.2 S 17 24 9 13 1025.9 1025.6 0.0
24/06:00pm 17.5 13.4 7.8 53 4.9 S 19 24 10 13 1025.8 1025.5 0.0
24/05:30pm 18.9 14.8 7.7 48 5.8 S 19 26 10 14 1025.5 1025.2 0.0
24/05:00pm 18.7 15.3 7.5 48 5.7 S 15 24 8 13 1025.4 1025.1 0.0
24/04:30pm 18.1 13.9 8.1 52 5.1 S 20 30 11 16 1025.4 1025.1 0.0
24/04:00pm 18.4 13.6 8.7 53 5.0 S 24 33 13 18 1025.5 1025.2 0.0
24/03:30pm 18.6 14.4 8.3 51 5.3 SSW 20 30 11 16 1025.7 1025.4 0.0
24/03:00pm 17.4 12.6 8.8 57 4.4 S 24 32 13 17 1026.0 1025.7 0.0
24/02:30pm 18.5 14.1 9.0 54 5.0 S 22 33 12 18 1026.1 1025.8 0.0
24/02:00pm 18.5 14.7 9.0 54 5.0 SSW 19 30 10 16 1026.0 1025.7 0.0
24/01:30pm 17.6 13.1 8.7 56 4.6 S 22 32 12 17 1026.2 1025.9 0.0
24/01:00pm 17.9 13.8 8.5 54 4.8 SW 20 28 11 15 1026.4 1026.1 0.0
24/12:30pm 17.7 14.2 8.8 56 4.6 SSW 17 24 9 13 1026.6 1026.3 0.0
24/12:00pm 16.9 13.3 8.3 57 4.4 SSW 17 24 9 13 1026.7 1026.4 0.0
24/11:30am 16.9 13.2 7.8 55 4.6 S 17 26 9 14 1026.5 1026.2 0.0
24/11:00am 16.4 12.4 8.4 59 4.1 SSW 19 26 10 14 1026.4 1026.1 0.0
24/10:30am 16.0 12.6 9.0 63 3.6 SSW 17 26 9 14 1026.3 1026.0 0.0
24/10:00am 15.8 13.3 8.3 61 3.8 SSW 11 19 6 10 1026.2 1025.9 0.0
24/09:30am 15.5 13.1 8.5 63 3.6 S 11 17 6 9 1025.8 1025.5 0.0
24/09:00am 14.9 13.4 9.1 68 3.0 SSW 7 11 4 6 1025.7 1025.4 0.0
24/08:30am 14.1 12.7 8.9 71 2.7 S 6 11 3 6 1025.5 1025.2 0.0
24/08:00am 13.0 11.5 9.3 78 1.9 S 7 9 4 5 1025.0 1024.7 0.0
24/07:30am 12.1 10.9 9.5 84 1.3 SSW 6 9 3 5 1024.8 1024.5 0.0
24/07:00am 11.8 10.5 9.2 84 1.3 SSW 6 6 3 3 1024.4 1024.1 0.0
24/06:30am 12.1 11.1 10.3 89 0.9 SSW 6 6 3 3 1024.1 1023.7 0.0
24/06:00am 12.1 11.2 10.7 91 0.7 SSW 6 6 3 3 1024.0 1023.6 0.0
24/05:30am 12.0 11.6 11.1 94 0.5 SSW 4 6 2 3 1023.7 1023.3 0.0
24/05:00am 12.0 11.4 11.7 98 0.2 SSW 6 7 3 4 1023.7 1023.3 0.0
24/04:30am 12.3 11.8 12.0 98 0.2 SW 6 7 3 4 1023.6 1023.2 0.0
24/04:00am 12.3 11.7 11.7 96 0.3 SSW 6 6 3 3 1023.4 1023.0 0.0
24/03:30am 13.2 13.7 12.7 97 0.3 SSW 2 4 1 2 1023.4 1023.0 0.0
24/03:00am 13.5 14.4 13.0 97 0.3 CALM 0 0 0 0 1023.5 1023.1 0.0
24/02:30am 13.6 14.6 13.1 97 0.3 CALM 0 0 0 0 1023.6 1023.2 0.0
24/02:00am 13.6 14.2 13.1 97 0.3 SSW 2 6 1 3 1023.8 1023.4 0.0
24/01:30am 13.7 13.5 13.1 96 0.3 SSW 6 7 3 4 1024.2 1023.9 0.0
24/01:00am 13.8 14.0 13.2 96 0.3 S 4 6 2 3 1024.2 1023.9 0.0
24/12:30am 13.8 13.6 13.0 95 0.4 S 6 7 3 4 1024.1 1023.7 0.0
24/12:00am 13.9 13.2 13.1 95 0.4 S 9 11 5 6 1024.0 1023.6 0.0
 
Date/Time
EDT
Temp
°C
App
Temp
°C
Dew
Point
°C
Rel
Hum
%
Delta-T
°C
Wind Press
QNH
hPa
Press
MSL
hPa
Rain since
9am
mm
Dir  Spd
km/h
Gust
km/h
Spd
kts
Gust
kts
23/11:30pm 14.2 13.3 13.6 96 0.3 SSW 11 15 6 8 1023.9 1023.5 0.0
23/11:00pm 14.2 13.4 13.9 98 0.2 SSW 11 15 6 8 1023.8 1023.4 0.0
23/10:30pm 14.2 13.7 13.9 98 0.2 SSW 9 13 5 7 1023.6 1023.2 0.0
23/10:00pm 14.2 13.4 13.9 98 0.2 SSW 11 17 6 9 1023.5 1023.1 0.0
23/09:30pm 14.3 13.1 14.1 99 0.1 SSW 13 19 7 10 1023.2 1022.8 0.0

Other Formats:

Comma delimited format used in spreadsheet applications
http://www.bom.gov.au/fwo/IDV60801/IDV60801.94840.axf

JavaScript Object Notation format (JSON) in row-major order
http://www.bom.gov.au/fwo/IDV60801/IDV60801.94840.json